Denhawken, Texas
Current Conditions -  °F | °C
As of 3:58 PM on Tuesday 21 Oct 2014 (Local Time) from KRND Reporting Station
Clear Clear  
Wind Chill: 83°   Ceiling: Unl
Heat Index: 83°   Visibility: 10mi
Dew Point: 51°   Wind: 7mph
Humidity: 33%   Direction: 120°ESE
Pressure: 29.98"   Gusts: NA
Location:  29.2327°N, 97.8937°W
Report Text: KRND 212058Z AUTO 12006KT 10SM CLR 28/11 A2998 RMK AO2 SLP146 T02840108 57023
Loading
Personal Weather Stations






























Interactive Weather Map
Tropical Storm Tracking
New forecast layout! Learn more

10-Day Weather Forecast

Advertisements
Track Severe Weather on mobile